In Rescue
 
Open Full Screen Window  High Contrast Mode
Wind Gusting 00 knots
06
September 19, 2019 5:48 PM EDT
Weather Information
Wind Direction
  160 °
Wind Speed
  06 kt (7 mph)
Wind Gust
  00 kt (0 mph)
Altimeter
30.14 in
Visibility
10 SM
Temperature
25° C
77° F
Dewpoint
14° C
57° F
Humidity
51%
Sky Condition
Clear
VFR

METAR KPHN 192148Z AUTO 16006KT 10SM CLR 25/14 A3014 RMK AO2

FAA Disclaimer: The data displayed is for advisory purposes only and is not to be used for flight planning or operations.